createdAt,value
2022-12-01T00:01:50.090Z,24.90
2022-12-01T00:04:17.053Z,23.50
2022-12-01T00:06:44.149Z,24.30
2022-12-01T00:09:29.710Z,24.00
2022-12-01T00:11:56.745Z,25.40
2022-12-01T00:14:23.723Z,23.80
2022-12-01T00:16:50.679Z,23.00
2022-12-01T00:19:17.645Z,23.60
2022-12-01T00:21:45.706Z,24.00
2022-12-01T00:24:12.674Z,23.90
2022-12-01T00:26:40.108Z,23.20
2022-12-01T00:29:07.416Z,24.70
2022-12-01T00:31:34.486Z,25.30
2022-12-01T00:34:03.030Z,25.10
2022-12-01T00:36:31.757Z,24.00
2022-12-01T00:38:58.642Z,24.00
2022-12-01T00:41:25.746Z,23.90
2022-12-01T00:43:52.836Z,24.50
2022-12-01T00:46:20.217Z,23.60
2022-12-01T00:48:47.586Z,22.70
2022-12-01T00:51:14.755Z,23.70
2022-12-01T00:53:41.641Z,24.10
2022-12-01T00:56:08.803Z,24.50
2022-12-01T00:58:35.919Z,23.70
2022-12-01T01:01:03.719Z,23.10
2022-12-01T01:03:32.338Z,23.50
2022-12-01T01:06:08.499Z,23.60
2022-12-01T01:08:36.200Z,22.80
2022-12-01T01:11:03.368Z,22.80
2022-12-01T01:13:30.824Z,22.70
2022-12-01T01:16:04.148Z,22.40
2022-12-01T01:18:31.956Z,22.80
2022-12-01T01:21:11.944Z,22.40
2022-12-01T01:26:15.174Z,20.90
2022-12-01T01:28:42.203Z,23.00
2022-12-01T01:31:11.676Z,22.00
2022-12-01T01:33:39.728Z,21.20
2022-12-01T01:36:07.240Z,23.10
2022-12-01T01:38:34.723Z,21.00
2022-12-01T01:41:02.808Z,22.00
2022-12-01T01:43:51.145Z,21.70
2022-12-01T01:46:23.868Z,23.50
2022-12-01T01:48:59.689Z,22.70
2022-12-01T01:51:53.257Z,22.60
2022-12-01T01:54:25.232Z,22.70
2022-12-01T01:56:54.996Z,22.10
2022-12-01T01:59:42.084Z,22.00
2022-12-01T02:02:11.103Z,22.50
2022-12-01T02:04:52.220Z,22.60
2022-12-01T02:07:19.388Z,21.10
2022-12-01T02:09:46.683Z,21.10
2022-12-01T02:12:23.320Z,20.80
2022-12-01T02:15:29.084Z,21.20
2022-12-01T02:17:56.068Z,19.50
2022-12-01T02:20:23.194Z,21.40
2022-12-01T02:22:54.091Z,19.90
2022-12-01T02:25:48.626Z,20.90
2022-12-01T02:28:33.685Z,20.80
2022-12-01T02:31:06.435Z,21.60
2022-12-01T02:33:55.979Z,21.10
2022-12-01T02:36:36.361Z,20.30
2022-12-01T02:39:27.704Z,21.60
2022-12-01T02:42:07.297Z,21.30
2022-12-01T02:44:39.685Z,21.50
2022-12-01T02:47:17.426Z,22.50
2022-12-01T02:49:51.152Z,21.40
2022-12-01T02:52:20.748Z,20.40
2022-12-01T02:54:50.913Z,22.10
2022-12-01T02:57:23.787Z,21.00
2022-12-01T02:59:54.227Z,19.60
2022-12-01T03:02:26.737Z,20.20
2022-12-01T03:05:01.950Z,20.30
2022-12-01T03:08:06.489Z,20.90
2022-12-01T03:10:45.287Z,19.30
2022-12-01T03:13:23.340Z,20.80
2022-12-01T03:16:04.268Z,19.80
2022-12-01T03:18:58.942Z,19.00
2022-12-01T03:21:53.338Z,19.80
2022-12-01T03:24:25.806Z,20.20
2022-12-01T03:26:56.863Z,19.60
2022-12-01T03:29:36.172Z,19.40
2022-12-01T03:32:12.461Z,19.80
2022-12-01T03:34:43.214Z,19.40
2022-12-01T03:37:18.279Z,18.80
2022-12-01T03:39:48.301Z,18.80
2022-12-01T03:44:50.784Z,18.50
2022-12-01T03:47:23.958Z,19.20
2022-12-01T03:49:52.877Z,19.00
2022-12-01T03:52:38.548Z,19.10
2022-12-01T03:55:19.189Z,19.40
2022-12-01T03:57:53.774Z,19.10
2022-12-01T04:00:21.435Z,18.80
2022-12-01T04:02:54.820Z,19.60
2022-12-01T04:05:25.303Z,19.30
2022-12-01T04:07:52.929Z,20.00
2022-12-01T04:10:20.243Z,19.10
2022-12-01T04:12:47.256Z,19.20
2022-12-01T04:15:34.580Z,18.90
2022-12-01T04:18:21.616Z,18.10
2022-12-01T04:20:49.678Z,18.00
2022-12-01T04:23:35.030Z,18.70
2022-12-01T04:26:04.493Z,18.80
2022-12-01T04:28:31.373Z,20.20
2022-12-01T04:30:58.389Z,18.50
2022-12-01T04:33:25.427Z,20.20
2022-12-01T04:36:01.392Z,18.90
2022-12-01T04:38:31.042Z,18.60
2022-12-01T04:40:58.395Z,19.40
2022-12-01T04:43:25.424Z,20.50
2022-12-01T04:45:52.419Z,20.10
2022-12-01T04:48:19.325Z,20.20
2022-12-01T04:50:48.807Z,19.00
2022-12-01T04:53:15.812Z,19.10
2022-12-01T04:55:42.714Z,19.70
2022-12-01T04:58:09.674Z,19.50
2022-12-01T05:00:37.347Z,19.00
2022-12-01T05:03:04.433Z,20.40
2022-12-01T05:05:31.594Z,20.90
2022-12-01T05:07:59.177Z,20.40
2022-12-01T05:10:26.261Z,19.50
2022-12-01T05:12:54.672Z,19.40
2022-12-01T05:15:21.705Z,20.30
2022-12-01T05:17:48.591Z,19.40
2022-12-01T05:20:40.175Z,20.00
2022-12-01T05:23:09.735Z,19.90
2022-12-01T05:25:39.114Z,20.50
2022-12-01T05:28:06.247Z,20.00
2022-12-01T05:30:33.370Z,19.90
2022-12-01T05:33:00.392Z,18.80
2022-12-01T05:35:27.445Z,20.60
2022-12-01T05:37:54.985Z,19.30
2022-12-01T05:40:21.883Z,20.20
2022-12-01T05:42:48.968Z,21.30
2022-12-01T05:45:15.998Z,21.10
2022-12-01T05:47:43.004Z,20.90
2022-12-01T05:50:10.626Z,19.90
2022-12-01T05:52:37.635Z,20.40
2022-12-01T05:55:04.910Z,20.00
2022-12-01T05:57:33.009Z,19.80
2022-12-01T05:59:59.993Z,20.90
2022-12-01T06:02:27.081Z,19.80
2022-12-01T06:04:54.080Z,20.90
2022-12-01T06:07:22.942Z,18.90
2022-12-01T06:09:50.107Z,19.20
2022-12-01T06:12:17.621Z,19.10
2022-12-01T06:14:44.836Z,20.00
2022-12-01T06:17:11.810Z,21.50
2022-12-01T06:19:38.964Z,20.90
2022-12-01T06:22:06.016Z,21.60
2022-12-01T06:24:32.891Z,20.70
2022-12-01T06:27:00.091Z,20.70
2022-12-01T06:29:27.056Z,19.50
2022-12-01T06:31:53.995Z,19.70
2022-12-01T06:34:21.098Z,18.80
2022-12-01T06:36:48.140Z,19.60
2022-12-01T06:39:18.102Z,19.70
2022-12-01T06:44:11.932Z,17.30
2022-12-01T06:46:39.040Z,19.00
2022-12-01T06:49:06.230Z,20.30
2022-12-01T06:51:33.665Z,21.10
2022-12-01T06:54:05.261Z,20.60
2022-12-01T06:56:33.056Z,20.30
2022-12-01T06:59:00.422Z,18.50
2022-12-01T07:01:27.999Z,18.40
2022-12-01T07:03:55.098Z,19.10
2022-12-01T07:06:22.183Z,19.30
2022-12-01T07:08:49.198Z,20.10
2022-12-01T07:11:16.275Z,17.80
2022-12-01T07:13:48.939Z,17.70
2022-12-01T07:16:16.305Z,19.50
2022-12-01T07:18:44.586Z,20.00
2022-12-01T07:21:13.676Z,19.70
2022-12-01T07:23:40.692Z,19.20
2022-12-01T07:26:11.173Z,18.00
2022-12-01T07:28:38.249Z,18.20
2022-12-01T07:31:11.089Z,18.00
2022-12-01T07:33:38.642Z,18.30
2022-12-01T07:36:06.495Z,20.50
2022-12-01T07:38:34.567Z,19.70
2022-12-01T07:41:13.585Z,18.60
2022-12-01T07:43:41.412Z,19.20
2022-12-01T07:46:23.661Z,17.20
2022-12-01T07:48:52.610Z,18.10
2022-12-01T07:51:21.245Z,18.90
2022-12-01T07:53:49.464Z,18.90
2022-12-01T07:56:17.905Z,18.60
2022-12-01T07:58:45.179Z,18.40
2022-12-01T08:01:18.670Z,17.50
2022-12-01T08:03:48.914Z,17.40
2022-12-01T08:06:17.240Z,18.50
2022-12-01T08:08:45.679Z,18.60
2022-12-01T08:11:19.547Z,19.80
2022-12-01T08:13:47.115Z,21.70
2022-12-01T08:16:16.916Z,21.30
2022-12-01T08:18:44.135Z,21.00
2022-12-01T08:21:13.669Z,19.20
2022-12-01T08:23:41.725Z,21.60
2022-12-01T08:26:13.421Z,19.70
2022-12-01T08:28:41.624Z,18.20
2022-12-01T08:31:29.348Z,19.40
2022-12-01T08:33:57.619Z,18.80
2022-12-01T08:36:25.328Z,20.60
2022-12-01T08:38:54.643Z,19.70
2022-12-01T08:41:24.098Z,19.10
2022-12-01T08:43:59.585Z,21.30
2022-12-01T08:46:30.924Z,21.40
2022-12-01T08:48:58.275Z,22.00
2022-12-01T08:51:25.897Z,20.00
2022-12-01T08:53:55.194Z,19.10
2022-12-01T08:56:30.242Z,21.00
2022-12-01T08:58:58.021Z,18.60
2022-12-01T09:01:25.919Z,18.20
2022-12-01T09:04:04.810Z,19.10
2022-12-01T09:06:34.478Z,20.90
2022-12-01T09:09:01.881Z,22.40
2022-12-01T09:11:28.913Z,21.00
2022-12-01T09:13:55.882Z,19.20
2022-12-01T09:16:22.877Z,20.30
2022-12-01T09:18:49.947Z,20.10
2022-12-01T09:21:23.466Z,20.10
2022-12-01T09:23:50.559Z,19.10
2022-12-01T09:26:19.132Z,18.20
2022-12-01T09:28:47.519Z,17.40
2022-12-01T09:31:16.114Z,17.80
2022-12-01T09:33:43.948Z,18.20
2022-12-01T09:36:10.916Z,19.00
2022-12-01T09:38:39.057Z,19.90
2022-12-01T09:41:32.763Z,17.90
2022-12-01T09:43:59.891Z,19.70
2022-12-01T09:46:33.635Z,22.10
2022-12-01T09:49:03.917Z,35.50
2022-12-01T09:51:35.659Z,37.10
2022-12-01T09:54:03.199Z,35.20
2022-12-01T09:56:38.998Z,28.70
2022-12-01T09:59:07.884Z,30.40
2022-12-01T10:01:42.580Z,25.90
2022-12-01T10:04:16.841Z,28.30
2022-12-01T10:06:59.487Z,24.90
2022-12-01T10:09:40.599Z,25.40
2022-12-01T10:12:15.026Z,22.40
2022-12-01T10:14:45.710Z,20.30
2022-12-01T10:17:58.989Z,18.10
2022-12-01T10:20:41.285Z,18.70
2022-12-01T10:23:47.269Z,19.10
2022-12-01T10:26:22.816Z,18.70
2022-12-01T10:28:57.584Z,20.20
2022-12-01T10:31:55.315Z,20.40
2022-12-01T10:34:26.761Z,19.60
2022-12-01T10:36:54.395Z,19.80
2022-12-01T10:39:21.425Z,20.20
2022-12-01T10:41:49.309Z,20.90
2022-12-01T10:44:18.613Z,23.40
2022-12-01T10:46:52.210Z,21.70
2022-12-01T10:49:19.970Z,20.70
2022-12-01T10:51:49.017Z,23.00
2022-12-01T10:54:16.686Z,21.60
2022-12-01T10:56:47.168Z,20.30
2022-12-01T10:59:25.521Z,21.50
2022-12-01T11:01:53.862Z,24.00
2022-12-01T11:04:34.251Z,23.30
2022-12-01T11:07:02.767Z,24.90
2022-12-01T11:09:30.607Z,23.20
2022-12-01T11:12:00.205Z,20.60
2022-12-01T11:14:50.962Z,22.80
2022-12-01T11:17:40.774Z,22.80
2022-12-01T11:20:40.428Z,23.50
2022-12-01T11:23:26.076Z,23.60
2022-12-01T11:25:58.079Z,22.80
2022-12-01T11:28:25.468Z,23.10
2022-12-01T11:31:03.852Z,21.20
2022-12-01T11:33:44.938Z,23.00
2022-12-01T11:36:21.547Z,22.00
2022-12-01T11:38:49.709Z,22.80
2022-12-01T11:41:34.969Z,23.50
2022-12-01T11:44:12.701Z,22.40
2022-12-01T11:46:55.834Z,23.80
2022-12-01T11:49:46.738Z,24.80
2022-12-01T11:52:36.063Z,25.00
2022-12-01T11:55:21.640Z,25.00
2022-12-01T11:57:52.057Z,23.10
2022-12-01T12:00:22.245Z,22.80
2022-12-01T12:03:10.945Z,23.30
2022-12-01T12:06:05.941Z,23.40
2022-12-01T12:08:48.174Z,22.80
2022-12-01T12:11:28.006Z,22.30
2022-12-01T12:14:10.180Z,23.30
2022-12-01T12:16:40.863Z,21.40
2022-12-01T12:19:52.250Z,21.40
2022-12-01T12:22:29.731Z,20.70
2022-12-01T12:25:22.921Z,20.60
2022-12-01T12:27:49.901Z,20.40
2022-12-01T12:30:29.229Z,22.00
2022-12-01T12:33:25.083Z,22.00
2022-12-01T12:36:21.368Z,24.00
2022-12-01T12:39:19.846Z,24.00
2022-12-01T12:41:54.036Z,23.20
2022-12-01T12:44:42.416Z,24.70
2022-12-01T12:47:54.436Z,23.00
2022-12-01T12:50:38.632Z,22.60
2022-12-01T12:53:16.668Z,27.50
2022-12-01T12:55:48.658Z,24.40
2022-12-01T12:58:28.285Z,21.90
2022-12-01T13:01:15.143Z,24.10
2022-12-01T13:03:52.850Z,22.30
2022-12-01T13:06:43.047Z,21.90
2022-12-01T13:12:02.393Z,18.20
2022-12-01T13:14:48.273Z,16.40
2022-12-01T13:17:36.804Z,22.30
2022-12-01T13:20:05.491Z,21.10
2022-12-01T13:22:34.713Z,19.40
2022-12-01T13:25:03.553Z,23.50
2022-12-01T13:27:40.642Z,32.40
2022-12-01T13:30:24.572Z,35.90
2022-12-01T13:33:03.611Z,33.80
2022-12-01T13:35:36.977Z,30.10
2022-12-01T13:38:24.935Z,25.20
2022-12-01T13:41:25.949Z,24.50
2022-12-01T13:43:58.503Z,24.80
2022-12-01T13:46:31.690Z,22.40
2022-12-01T13:49:03.867Z,46.90
2022-12-01T13:52:09.141Z,37.70
2022-12-01T13:54:37.006Z,29.00
2022-12-01T13:57:13.437Z,22.90
2022-12-01T13:59:58.761Z,23.20
2022-12-01T14:02:36.007Z,21.10
2022-12-01T14:05:41.446Z,20.50
2022-12-01T14:08:23.843Z,22.10
2022-12-01T14:10:58.166Z,21.20
2022-12-01T14:13:27.458Z,34.60
2022-12-01T14:16:03.767Z,94.60
2022-12-01T14:18:41.508Z,125.00
2022-12-01T14:21:11.456Z,70.20
2022-12-01T14:24:00.535Z,73.00
2022-12-01T14:26:29.846Z,29.00
2022-12-01T14:28:59.384Z,28.20
2022-12-01T14:31:32.092Z,38.00
2022-12-01T14:34:18.651Z,28.90
2022-12-01T14:36:51.909Z,42.20
2022-12-01T14:39:28.452Z,42.60
2022-12-01T14:42:02.555Z,38.20
2022-12-01T14:44:32.376Z,36.00
2022-12-01T14:49:37.539Z,44.00
2022-12-01T14:52:13.396Z,39.30
2022-12-01T14:54:47.926Z,64.50
2022-12-01T14:57:18.086Z,48.30
2022-12-01T14:59:45.104Z,43.20
2022-12-01T15:02:13.346Z,22.20
2022-12-01T15:05:06.869Z,42.10
2022-12-01T15:07:46.866Z,49.80
2022-12-01T15:15:21.041Z,30.70
2022-12-01T15:17:52.734Z,37.90
2022-12-01T15:20:34.254Z,49.70
2022-12-01T15:23:14.300Z,54.50
2022-12-01T15:25:43.942Z,42.30
2022-12-01T15:28:18.856Z,59.40
2022-12-01T15:30:51.238Z,57.00
2022-12-01T15:33:26.902Z,54.30
2022-12-01T15:35:56.141Z,66.60
2022-12-01T15:38:35.391Z,57.10
2022-12-01T15:41:28.611Z,64.30
2022-12-01T15:43:58.086Z,60.10
2022-12-01T15:46:30.641Z,52.60
2022-12-01T15:49:32.089Z,48.20
2022-12-01T15:52:08.550Z,37.70
2022-12-01T15:54:36.542Z,37.90
2022-12-01T15:57:05.372Z,35.70
2022-12-01T15:59:38.160Z,33.00
2022-12-01T16:02:20.256Z,36.80
2022-12-01T16:04:49.420Z,67.60
2022-12-01T16:07:16.833Z,52.40
2022-12-01T16:09:56.790Z,46.40
2022-12-01T16:15:22.554Z,24.30
2022-12-01T16:17:52.297Z,37.80
2022-12-01T16:20:25.470Z,39.80
2022-12-01T16:23:01.896Z,52.70
2022-12-01T16:25:44.779Z,51.50
2022-12-01T16:28:25.433Z,57.90
2022-12-01T16:30:52.813Z,62.40
2022-12-01T16:33:25.636Z,51.60
2022-12-01T16:35:54.114Z,58.10
2022-12-01T16:38:23.848Z,71.80
2022-12-01T16:40:53.079Z,26.70
2022-12-01T16:43:22.892Z,30.10
2022-12-01T16:45:56.981Z,38.00
2022-12-01T16:48:24.382Z,41.30
2022-12-01T16:50:52.753Z,32.90
2022-12-01T16:53:19.921Z,38.60
2022-12-01T16:55:55.409Z,44.70
2022-12-01T16:58:22.942Z,39.90
2022-12-01T17:00:53.810Z,36.50
2022-12-01T17:03:23.433Z,93.30
2022-12-01T17:05:51.767Z,78.20
2022-12-01T17:08:19.164Z,61.10
2022-12-01T17:10:49.056Z,38.90
2022-12-01T17:13:17.334Z,33.30
2022-12-01T17:15:46.709Z,31.80
2022-12-01T17:18:15.798Z,32.60
2022-12-01T17:20:43.115Z,32.30
2022-12-01T17:23:10.553Z,43.10
2022-12-01T17:25:41.440Z,34.00
2022-12-01T17:28:08.496Z,33.70
2022-12-01T17:30:36.400Z,29.90
2022-12-01T17:33:03.641Z,21.80
2022-12-01T17:35:30.741Z,20.10
2022-12-01T17:37:57.668Z,17.90
2022-12-01T17:40:24.632Z,17.60
2022-12-01T17:42:51.603Z,19.40
2022-12-01T17:45:18.612Z,20.30
2022-12-01T17:47:45.924Z,20.90
2022-12-01T17:50:13.000Z,19.50
2022-12-01T17:52:40.481Z,19.40
2022-12-01T17:55:08.436Z,21.70
2022-12-01T17:57:35.613Z,27.30
2022-12-01T18:00:04.606Z,36.90
2022-12-01T18:02:31.582Z,42.10
2022-12-01T18:04:58.659Z,34.80
2022-12-01T18:07:25.747Z,38.40
2022-12-01T18:09:52.780Z,41.00
2022-12-01T18:12:19.766Z,32.50
2022-12-01T18:14:46.937Z,41.70
2022-12-01T18:17:14.131Z,44.80
2022-12-01T18:19:41.034Z,30.30
2022-12-01T18:22:08.190Z,21.80
2022-12-01T18:24:35.481Z,32.50
2022-12-01T18:27:02.476Z,45.00
2022-12-01T18:29:29.486Z,39.30
2022-12-01T18:31:58.251Z,37.00
2022-12-01T18:34:26.857Z,44.00
2022-12-01T18:36:53.834Z,98.90
2022-12-01T18:39:20.775Z,81.40
2022-12-01T18:41:47.841Z,74.00
2022-12-01T18:44:15.192Z,55.40
2022-12-01T18:46:42.198Z,48.80
2022-12-01T18:49:09.791Z,36.00
2022-12-01T18:51:37.580Z,28.40
2022-12-01T18:54:06.386Z,27.90
2022-12-01T18:56:34.616Z,26.90
2022-12-01T18:59:05.420Z,27.00
2022-12-01T19:01:36.145Z,24.40
2022-12-01T19:04:04.892Z,26.40
2022-12-01T19:06:33.423Z,29.70
2022-12-01T19:09:02.385Z,38.90
2022-12-01T19:11:29.875Z,39.70
2022-12-01T19:13:57.261Z,31.60
2022-12-01T19:16:24.547Z,26.60
2022-12-01T19:18:51.655Z,25.40
2022-12-01T19:21:19.572Z,25.60
2022-12-01T19:23:47.260Z,22.20
2022-12-01T19:26:17.984Z,23.30
2022-12-01T19:28:45.807Z,22.20
2022-12-01T19:31:19.520Z,32.60
2022-12-01T19:33:47.145Z,40.10
2022-12-01T19:36:17.459Z,35.50
2022-12-01T19:38:45.453Z,32.30
2022-12-01T19:41:13.840Z,26.30
2022-12-01T19:43:41.936Z,23.20
2022-12-01T19:46:13.009Z,20.60
2022-12-01T19:48:41.142Z,20.80
2022-12-01T19:51:19.721Z,19.60
2022-12-01T19:53:47.047Z,21.20
2022-12-01T19:56:14.466Z,23.80
2022-12-01T19:58:41.882Z,16.50
2022-12-01T20:01:11.999Z,18.80
2022-12-01T20:03:40.261Z,19.70
2022-12-01T20:06:12.219Z,34.90
2022-12-01T20:08:39.223Z,33.80
2022-12-01T20:11:06.872Z,23.50
2022-12-01T20:13:35.436Z,20.90
2022-12-01T20:16:17.860Z,20.80
2022-12-01T20:18:44.975Z,19.30
2022-12-01T20:21:22.439Z,20.80
2022-12-01T20:24:00.731Z,18.20
2022-12-01T20:26:31.180Z,19.20
2022-12-01T20:29:01.724Z,18.00
2022-12-01T20:31:30.358Z,15.90
2022-12-01T20:33:59.366Z,14.60
2022-12-01T20:36:27.251Z,16.00
2022-12-01T20:38:55.062Z,15.30
2022-12-01T20:43:52.512Z,14.70
2022-12-01T20:46:19.785Z,15.10
2022-12-01T20:48:46.926Z,13.80
2022-12-01T20:51:14.409Z,16.30
2022-12-01T20:53:54.499Z,15.50
2022-12-01T20:56:29.893Z,14.20
2022-12-01T20:58:56.828Z,217.90
2022-12-01T21:01:23.884Z,119.20
2022-12-01T21:03:54.046Z,56.50
2022-12-01T21:08:50.308Z,42.70
2022-12-01T21:11:40.293Z,59.00
2022-12-01T21:14:15.882Z,37.50
2022-12-01T21:16:47.657Z,31.70
2022-12-01T21:19:39.623Z,32.00
2022-12-01T21:22:15.632Z,21.70
2022-12-01T21:24:45.542Z,16.90
2022-12-01T21:29:41.335Z,16.70
2022-12-01T21:32:18.882Z,16.60
2022-12-01T21:34:47.747Z,19.00
2022-12-01T21:37:24.733Z,18.30
2022-12-01T21:39:55.626Z,19.70
2022-12-01T21:42:26.872Z,19.10
2022-12-01T21:44:56.077Z,17.50
2022-12-01T21:47:25.849Z,22.90
2022-12-01T21:49:56.462Z,95.30
2022-12-01T21:52:41.358Z,74.40
2022-12-01T21:55:14.672Z,35.00
2022-12-01T21:57:46.066Z,25.90
2022-12-01T22:00:28.801Z,22.80
2022-12-01T22:03:10.823Z,25.10
2022-12-01T22:06:21.447Z,26.30
2022-12-01T22:08:43.984Z,20.30
2022-12-01T22:11:18.111Z,26.60
2022-12-01T22:13:47.063Z,33.00
2022-12-01T22:16:30.304Z,37.90
2022-12-01T22:19:31.128Z,41.40
2022-12-01T22:22:15.235Z,46.20
2022-12-01T22:24:51.025Z,43.40
2022-12-01T22:27:20.830Z,37.10
2022-12-01T22:29:50.554Z,22.80
2022-12-01T22:32:53.669Z,32.50
2022-12-01T22:35:25.696Z,33.60
2022-12-01T22:38:24.920Z,32.40
2022-12-01T22:40:56.682Z,32.90
2022-12-01T22:43:29.787Z,47.20
2022-12-01T22:45:59.961Z,49.60
2022-12-01T22:48:28.048Z,39.40
2022-12-01T22:50:57.224Z,36.50
2022-12-01T22:53:30.676Z,27.90
2022-12-01T22:56:00.236Z,16.90
2022-12-01T22:58:34.484Z,16.80
2022-12-01T23:01:10.567Z,14.60
2022-12-01T23:03:37.655Z,21.50
2022-12-01T23:06:42.699Z,24.40
2022-12-01T23:09:13.834Z,22.20
2022-12-01T23:11:48.804Z,19.80
2022-12-01T23:14:22.665Z,16.30
2022-12-01T23:16:56.722Z,14.70
2022-12-01T23:19:24.825Z,29.20
2022-12-01T23:21:52.760Z,30.60
2022-12-01T23:24:19.624Z,33.80
2022-12-01T23:26:46.688Z,31.00
2022-12-01T23:29:13.606Z,32.00
2022-12-01T23:31:40.903Z,38.50
2022-12-01T23:34:16.562Z,43.10
2022-12-01T23:36:44.417Z,28.90
2022-12-01T23:39:15.852Z,23.60
2022-12-01T23:41:49.572Z,22.20
2022-12-01T23:44:46.258Z,22.80
2022-12-01T23:47:26.218Z,21.70
2022-12-01T23:52:29.714Z,19.20
2022-12-01T23:54:56.673Z,24.00
2022-12-01T23:57:24.827Z,33.40
2022-12-01T23:59:55.847Z,37.90
